Time;durP1;ratioP1;P1;durP2;ratioP2;P2;SDS_P1;SDS_P2;PMS_P1;PMS_P2;Temp;Humidity;BMP_temperature;BMP_pressure;BME280_temperature;BME280_humidity;BME280_pressure;Samples;Min_cycle;Max_cycle;Signal;HPM_P1;HPM_P2
2022/07/05 00:00:50;;;;;;;4.53;2.60;;;16.80;99.90;;;;;;5096509;28;20032;-63
2022/07/05 00:03:16;;;;;;;5.22;2.40;;;16.90;99.90;;;;;;5089228;28;20411;-62
2022/07/05 00:05:42;;;;;;;4.50;2.50;;;16.80;99.90;;;;;;5084325;28;20162;-62
2022/07/05 00:08:08;;;;;;;4.15;2.33;;;16.80;99.90;;;;;;5079879;28;20067;-62
2022/07/05 00:10:35;;;;;;;4.90;2.50;;;16.70;99.90;;;;;;5083685;28;20438;-62
2022/07/05 00:13:01;;;;;;;4.20;2.70;;;16.80;99.90;;;;;;5081416;28;20583;-62
2022/07/05 00:15:27;;;;;;;3.70;2.20;;;16.70;99.90;;;;;;5084529;28;20059;-62
2022/07/05 00:17:53;;;;;;;3.83;2.40;;;16.70;99.90;;;;;;5083429;28;20400;-62
2022/07/05 00:20:18;;;;;;;6.22;2.55;;;16.50;99.90;;;;;;5084904;28;20111;-63
2022/07/05 00:22:44;;;;;;;5.55;2.70;;;16.40;99.90;;;;;;5078767;28;20476;-63
2022/07/05 00:25:10;;;;;;;2.72;2.15;;;16.40;99.90;;;;;;5080604;28;20085;-62
2022/07/05 00:27:35;;;;;;;4.43;2.60;;;16.50;99.90;;;;;;5088041;28;20033;-63
2022/07/05 00:30:01;;;;;;;4.75;2.60;;;16.50;99.90;;;;;;5077557;28;20020;-63
2022/07/05 00:32:27;;;;;;;5.30;2.55;;;16.50;99.90;;;;;;5083799;28;20068;-63
2022/07/05 00:34:52;;;;;;;6.32;2.80;;;16.40;99.90;;;;;;5082116;28;20464;-63
2022/07/05 00:37:18;;;;;;;4.63;2.95;;;16.50;99.90;;;;;;5086533;28;20150;-62
2022/07/05 00:39:44;;;;;;;5.75;2.75;;;16.60;99.90;;;;;;5081704;28;20059;-62
2022/07/05 00:42:09;;;;;;;5.57;2.70;;;16.50;99.90;;;;;;5080029;28;20016;-63
2022/07/05 00:44:38;;;;;;;5.88;3.00;;;16.60;99.90;;;;;;5084563;28;20107;-63
2022/07/05 00:47:05;;;;;;;5.32;2.78;;;16.50;99.90;;;;;;5079932;28;20085;-62
2022/07/05 00:49:32;;;;;;;4.53;2.80;;;16.50;99.90;;;;;;5083951;28;20028;-63
2022/07/05 00:51:59;;;;;;;2.90;2.60;;;16.60;99.90;;;;;;5079018;28;20023;-63
2022/07/05 00:54:26;;;;;;;3.80;2.47;;;16.70;99.90;;;;;;5080679;28;20031;-63
2022/07/05 00:56:52;;;;;;;5.25;2.80;;;16.80;99.90;;;;;;5087976;28;20016;-62
2022/07/05 00:59:18;;;;;;;5.75;2.80;;;16.80;99.90;;;;;;5081441;28;20476;-63
2022/07/05 01:01:44;;;;;;;4.30;2.97;;;16.70;99.90;;;;;;5086117;28;20024;-62
2022/07/05 01:04:11;;;;;;;3.63;2.50;;;16.70;99.90;;;;;;5086698;28;20028;-63
2022/07/05 01:06:38;;;;;;;4.55;2.53;;;16.70;99.90;;;;;;5079609;28;20111;-63
2022/07/05 01:09:04;;;;;;;4.50;2.78;;;16.50;99.90;;;;;;5083260;28;20024;-63
2022/07/05 01:11:30;;;;;;;3.53;2.60;;;16.50;99.90;;;;;;5076758;28;20033;-62
2022/07/05 01:13:58;;;;;;;4.22;3.00;;;16.60;99.90;;;;;;5082063;28;20370;-63
2022/07/05 01:16:24;;;;;;;4.90;3.10;;;16.50;99.90;;;;;;5088079;28;20543;-62
2022/07/05 01:18:50;;;;;;;5.22;3.22;;;16.50;99.90;;;;;;5082047;28;20137;-63
2022/07/05 01:21:19;;;;;;;4.18;2.88;;;16.60;99.90;;;;;;5087212;28;20072;-63
2022/07/05 01:23:45;;;;;;;3.65;3.20;;;16.60;99.90;;;;;;5085127;28;20050;-63
2022/07/05 01:26:11;;;;;;;3.58;2.55;;;16.70;99.90;;;;;;5082544;28;20034;-62
2022/07/05 01:28:37;;;;;;;4.22;2.88;;;16.60;99.90;;;;;;5081410;28;20043;-63
2022/07/05 01:31:02;;;;;;;4.28;3.05;;;16.70;99.90;;;;;;5086981;28;20113;-63
2022/07/05 01:33:30;;;;;;;7.00;3.38;;;16.70;99.90;;;;;;5086750;28;20036;-63
2022/07/05 01:35:57;;;;;;;4.63;2.97;;;16.70;99.90;;;;;;5074214;28;20024;-63
2022/07/05 01:38:24;;;;;;;3.85;2.80;;;16.60;99.90;;;;;;5072804;28;20013;-63
2022/07/05 01:40:51;;;;;;;5.00;2.90;;;16.60;99.90;;;;;;5081388;28;20567;-63
2022/07/05 01:43:18;;;;;;;5.97;3.20;;;16.50;99.90;;;;;;5075171;28;20036;-63
2022/07/05 01:45:46;;;;;;;6.03;2.97;;;16.60;99.90;;;;;;5078664;28;20434;-62
2022/07/05 01:48:14;;;;;;;8.43;3.63;;;16.40;99.90;;;;;;5085477;28;20069;-62
2022/07/05 01:51:09;;;;;;;3.70;3.10;;;16.40;99.90;;;;;;5083068;28;20404;-63
2022/07/05 01:53:38;;;;;;;4.57;3.10;;;16.50;99.90;;;;;;5084538;28;20016;-62
2022/07/05 01:56:04;;;;;;;3.83;3.00;;;16.40;99.90;;;;;;5082864;28;20463;-62
2022/07/05 01:58:34;;;;;;;4.82;3.15;;;16.30;99.90;;;;;;5082775;28;20127;-61
2022/07/05 02:00:59;;;;;;;4.35;3.00;;;16.20;99.90;;;;;;5080580;28;20023;-63
2022/07/05 02:03:26;;;;;;;4.97;3.20;;;16.20;99.90;;;;;;5079609;28;20383;-62
2022/07/05 02:05:52;;;;;;;7.28;3.30;;;16.10;99.90;;;;;;5077297;28;20131;-62
2022/07/05 02:08:20;;;;;;;5.05;3.45;;;16.10;99.90;;;;;;5083912;28;20032;-63
2022/07/05 02:10:46;;;;;;;3.63;3.20;;;16.40;99.90;;;;;;5082293;28;20023;-62
2022/07/05 02:13:12;;;;;;;5.78;3.13;;;16.20;99.90;;;;;;5072897;28;20012;-63
2022/07/05 02:15:40;;;;;;;5.38;3.10;;;16.10;99.90;;;;;;5072715;28;20046;-63
2022/07/05 02:18:08;;;;;;;6.78;3.22;;;16.00;99.90;;;;;;5075327;28;20020;-62
2022/07/05 02:20:35;;;;;;;6.03;3.33;;;15.90;99.90;;;;;;5076782;28;20031;-63
2022/07/05 02:23:00;;;;;;;4.85;3.28;;;16.00;99.90;;;;;;5086541;28;20032;-63
2022/07/05 02:25:26;;;;;;;5.28;3.35;;;16.00;99.90;;;;;;5084314;28;20048;-62
2022/07/05 02:27:54;;;;;;;3.67;3.00;;;16.00;99.90;;;;;;5082820;28;20077;-63
2022/07/05 02:30:20;;;;;;;5.80;3.50;;;15.90;99.90;;;;;;5087835;28;20559;-62
2022/07/05 02:32:46;;;;;;;4.30;3.28;;;16.00;99.90;;;;;;5082018;28;20032;-62
2022/07/05 02:35:13;;;;;;;5.68;3.47;;;16.00;99.90;;;;;;5083765;28;20016;-62
2022/07/05 02:37:39;;;;;;;5.07;3.30;;;15.90;99.90;;;;;;5079270;28;20479;-63
2022/07/05 02:40:07;;;;;;;3.90;3.20;;;15.80;99.90;;;;;;5086517;28;20178;-62
2022/07/05 02:42:32;;;;;;;6.68;3.28;;;15.90;99.90;;;;;;5084402;28;20544;-62
2022/07/05 02:44:58;;;;;;;3.78;3.15;;;15.80;99.90;;;;;;5082941;28;20024;-62
2022/07/05 02:47:23;;;;;;;4.30;3.45;;;15.80;99.90;;;;;;5077030;28;20081;-62
2022/07/05 02:49:49;;;;;;;6.32;3.47;;;15.70;99.90;;;;;;5075645;28;20037;-63
2022/07/05 02:52:15;;;;;;;4.55;3.20;;;15.60;99.90;;;;;;5072581;28;20016;-63
2022/07/05 02:54:40;;;;;;;3.80;3.30;;;15.60;99.90;;;;;;5080289;28;20036;-63
2022/07/05 02:57:06;;;;;;;4.00;3.20;;;15.60;99.90;;;;;;5078103;28;20024;-63
2022/07/05 02:59:31;;;;;;;6.60;3.58;;;15.50;99.90;;;;;;5072179;28;20423;-63
2022/07/05 03:01:57;;;;;;;5.10;3.20;;;15.50;99.90;;;;;;5076086;28;20460;-62
2022/07/05 03:04:23;;;;;;;4.55;3.20;;;15.50;99.90;;;;;;5083360;28;20032;-62
2022/07/05 03:06:48;;;;;;;3.80;3.20;;;15.40;99.90;;;;;;5077287;28;20028;-62
2022/07/05 03:09:14;;;;;;;5.90;3.20;;;15.40;99.90;;;;;;5076418;28;20030;-62
2022/07/05 03:11:39;;;;;;;8.85;3.50;;;15.40;99.90;;;;;;5069684;28;20064;-62
2022/07/05 03:14:05;;;;;;;5.45;3.38;;;15.40;99.90;;;;;;5066431;28;20020;-63
2022/07/05 03:16:30;;;;;;;6.55;3.60;;;15.40;99.90;;;;;;5081134;28;20077;-62
2022/07/05 03:18:56;;;;;;;6.85;3.80;;;15.40;99.90;;;;;;5079388;28;20078;-62
2022/07/05 03:21:22;;;;;;;7.30;3.17;;;15.30;99.90;;;;;;5078129;28;20035;-62
2022/07/05 03:23:47;;;;;;;3.35;3.03;;;15.30;99.90;;;;;;5070611;28;20036;-62
2022/07/05 03:26:13;;;;;;;7.03;3.30;;;15.40;99.90;;;;;;5072079;28;20025;-62
2022/07/05 03:28:39;;;;;;;5.38;3.88;;;15.30;99.90;;;;;;5072516;28;20037;-63
2022/07/05 03:31:05;;;;;;;5.43;3.58;;;15.30;99.90;;;;;;5072131;28;20032;-62
2022/07/05 03:33:31;;;;;;;4.25;3.47;;;15.30;99.90;;;;;;5078875;28;20360;-62
2022/07/05 03:35:57;;;;;;;5.22;3.55;;;15.30;99.90;;;;;;5074570;28;20187;-62
2022/07/05 03:38:22;;;;;;;5.18;3.78;;;15.30;99.90;;;;;;5070627;28;20028;-62
2022/07/05 03:40:48;;;;;;;4.35;3.70;;;15.40;99.90;;;;;;5072320;28;20024;-61
2022/07/05 03:43:13;;;;;;;4.82;3.42;;;15.50;99.90;;;;;;5073293;28;20035;-62
2022/07/05 03:45:39;;;;;;;5.53;3.88;;;15.40;99.90;;;;;;5071007;28;20097;-62
2022/07/05 03:48:05;;;;;;;5.30;3.88;;;15.30;99.90;;;;;;5079939;28;20020;-62
2022/07/05 03:50:30;;;;;;;5.05;3.78;;;15.10;99.90;;;;;;5076043;28;20025;-61
2022/07/05 03:52:56;;;;;;;6.93;4.30;;;15.10;99.90;;;;;;5076331;28;20027;-62
2022/07/05 03:55:21;;;;;;;6.78;3.58;;;15.00;99.90;;;;;;5075351;28;20025;-62
2022/07/05 03:57:47;;;;;;;4.53;4.05;;;15.10;99.90;;;;;;5070672;28;20028;-61
2022/07/05 04:00:14;;;;;;;8.10;4.03;;;15.10;99.90;;;;;;5087479;28;20016;-63
2022/07/05 04:02:40;;;;;;;7.10;4.57;;;15.00;99.90;;;;;;5079840;28;20043;-62
2022/07/05 04:05:06;;;;;;;5.65;4.20;;;14.90;99.90;;;;;;5078786;28;20025;-62
2022/07/05 04:07:32;;;;;;;10.52;4.45;;;15.00;99.90;;;;;;5067480;28;20495;-62
2022/07/05 04:09:58;;;;;;;5.57;4.20;;;15.10;99.90;;;;;;5070363;28;20024;-62
2022/07/05 04:12:23;;;;;;;8.13;4.60;;;15.10;99.90;;;;;;5073024;28;20016;-62
2022/07/05 04:14:49;;;;;;;8.13;4.53;;;15.10;99.90;;;;;;5084228;28;20397;-62
2022/07/05 04:17:15;;;;;;;8.40;4.93;;;15.00;99.90;;;;;;5079130;28;20032;-63
2022/07/05 04:19:40;;;;;;;10.45;4.93;;;15.10;99.90;;;;;;5079221;28;20036;-63
2022/07/05 04:22:06;;;;;;;5.85;4.80;;;15.10;99.90;;;;;;5080725;28;20024;-62
2022/07/05 04:25:16;;;;;;;8.40;4.90;;;15.20;99.90;;;;;;5076871;28;20035;-61
2022/07/05 04:27:17;;;;;;;9.57;5.10;;;15.30;99.90;;;;;;5071411;28;20036;-61
2022/07/05 04:29:42;;;;;;;7.38;4.93;;;15.20;99.90;;;;;;5070427;28;20029;-62
2022/07/05 04:32:08;;;;;;;6.25;4.63;;;15.30;99.90;;;;;;5069784;28;20059;-62
2022/07/05 04:34:34;;;;;;;10.52;4.97;;;15.40;99.90;;;;;;5073762;28;20156;-62
2022/07/05 04:36:59;;;;;;;7.45;5.30;;;15.40;99.90;;;;;;5069597;28;20069;-62
2022/07/05 04:39:25;;;;;;;6.40;4.60;;;15.50;99.90;;;;;;5074857;28;20098;-63
2022/07/05 04:41:50;;;;;;;8.90;5.13;;;15.60;99.90;;;;;;5078563;28;20039;-62
2022/07/05 04:44:16;;;;;;;9.45;5.10;;;15.50;99.90;;;;;;5082360;28;20039;-62
2022/07/05 04:46:41;;;;;;;10.80;5.40;;;15.60;99.90;;;;;;5081780;28;20024;-62
2022/07/05 04:49:07;;;;;;;7.25;5.40;;;15.70;99.90;;;;;;5079371;28;20031;-63
2022/07/05 04:51:32;;;;;;;7.03;4.68;;;15.70;99.90;;;;;;5074919;28;20024;-62
2022/07/05 04:53:58;;;;;;;9.15;5.28;;;15.70;99.90;;;;;;5074913;28;20025;-62
2022/07/05 04:56:23;;;;;;;10.27;5.07;;;15.90;99.90;;;;;;5078498;28;20021;-63
2022/07/05 04:58:49;;;;;;;7.03;5.10;;;15.90;99.90;;;;;;5076457;28;20036;-62
2022/07/05 05:01:14;;;;;;;6.95;5.05;;;15.80;99.90;;;;;;5083568;28;20096;-61
2022/07/05 05:03:40;;;;;;;7.38;5.00;;;15.90;99.90;;;;;;5083507;28;20135;-62
2022/07/05 05:06:06;;;;;;;5.80;4.78;;;16.00;99.90;;;;;;5079910;28;20095;-63
2022/07/05 05:08:31;;;;;;;10.85;5.18;;;16.10;99.90;;;;;;5079864;28;20024;-63
2022/07/05 05:10:57;;;;;;;5.55;4.85;;;16.20;99.90;;;;;;5078619;28;20028;-62
2022/07/05 05:13:23;;;;;;;9.13;5.25;;;16.40;99.90;;;;;;5075063;28;20696;-62
2022/07/05 05:15:48;;;;;;;7.30;4.68;;;16.60;99.90;;;;;;5079333;28;20019;-63
2022/07/05 05:18:15;;;;;;;7.45;5.43;;;16.80;99.90;;;;;;5081826;28;20324;-63
2022/07/05 05:20:40;;;;;;;8.85;5.32;;;16.80;99.90;;;;;;5081134;28;20034;-63
2022/07/05 05:23:06;;;;;;;8.07;5.10;;;16.80;99.90;;;;;;5073309;28;20032;-62
2022/07/05 05:25:31;;;;;;;12.02;5.35;;;16.60;99.90;;;;;;5075338;28;20095;-62
2022/07/05 05:27:57;;;;;;;8.77;4.80;;;16.70;99.90;;;;;;5074885;28;20024;-62
2022/07/05 05:30:23;;;;;;;6.25;5.00;;;16.90;99.90;;;;;;5077484;28;20054;-62
2022/07/05 05:32:48;;;;;;;8.88;5.28;;;16.90;99.90;;;;;;5083819;28;20032;-62
2022/07/05 05:35:20;;;;;;;7.18;4.85;;;16.80;99.90;;;;;;5078554;28;20444;-61
2022/07/05 05:37:47;;;;;;;8.55;5.00;;;16.70;99.90;;;;;;5086088;28;20489;-63
2022/07/05 05:40:13;;;;;;;11.15;5.70;;;16.80;99.90;;;;;;5078936;28;20015;-63
2022/07/05 05:42:39;;;;;;;7.68;5.55;;;16.90;99.90;;;;;;5078954;28;20035;-62
2022/07/05 05:45:05;;;;;;;9.40;5.45;;;16.90;99.90;;;;;;5070943;28;20040;-63
2022/07/05 05:47:30;;;;;;;8.45;5.10;;;17.00;99.90;;;;;;5084642;28;20025;-62
2022/07/05 05:49:56;;;;;;;7.20;5.53;;;17.10;99.90;;;;;;5075778;28;20031;-63
2022/07/05 05:52:21;;;;;;;5.60;5.00;;;17.20;99.90;;;;;;5077908;28;20082;-63
2022/07/05 05:54:47;;;;;;;8.73;5.13;;;17.20;99.90;;;;;;5076000;28;20064;-63
2022/07/05 05:57:12;;;;;;;7.65;5.15;;;17.40;99.90;;;;;;5080028;28;20028;-62
2022/07/05 05:59:38;;;;;;;11.43;5.32;;;17.50;99.90;;;;;;5071926;28;20024;-63
2022/07/05 06:02:04;;;;;;;6.60;5.18;;;17.60;99.90;;;;;;5081025;28;20082;-62
2022/07/05 06:04:29;;;;;;;9.95;4.70;;;17.50;99.90;;;;;;5086118;28;20036;-63
2022/07/05 06:06:55;;;;;;;6.38;4.25;;;17.50;99.90;;;;;;5078932;28;20042;-64
2022/07/05 06:09:20;;;;;;;7.78;4.35;;;17.50;99.90;;;;;;5079760;28;20454;-63
2022/07/05 06:11:46;;;;;;;6.55;3.92;;;17.60;99.90;;;;;;5070483;28;20361;-63
2022/07/05 06:14:11;;;;;;;5.38;3.47;;;17.70;99.90;;;;;;5082779;28;20438;-62
2022/07/05 06:16:37;;;;;;;5.75;3.67;;;17.80;99.90;;;;;;5081058;28;20634;-62
2022/07/05 06:19:03;;;;;;;6.35;3.85;;;18.10;99.90;;;;;;5082145;28;20463;-62
2022/07/05 06:21:28;;;;;;;5.85;3.60;;;18.20;99.90;;;;;;5083311;28;20028;-63
2022/07/05 06:23:54;;;;;;;4.18;3.20;;;18.20;99.90;;;;;;5078413;28;20031;-62
2022/07/05 06:26:19;;;;;;;4.88;2.80;;;18.30;99.90;;;;;;5072030;28;20025;-62
2022/07/05 06:28:45;;;;;;;6.93;2.95;;;18.20;99.90;;;;;;5077249;28;20315;-60
2022/07/05 06:31:10;;;;;;;10.02;5.00;;;18.30;99.90;;;;;;5080871;28;20039;-62
2022/07/05 06:33:36;;;;;;;6.22;3.85;;;18.40;99.90;;;;;;5078653;28;20023;-62
2022/07/05 06:36:02;;;;;;;5.20;3.10;;;18.50;99.90;;;;;;5079388;28;20016;-63
2022/07/05 06:38:27;;;;;;;4.20;2.83;;;18.40;99.90;;;;;;5079910;28;20033;-61
2022/07/05 06:40:54;;;;;;;4.95;2.88;;;18.70;99.90;;;;;;5086742;28;20032;-62
2022/07/05 06:43:19;;;;;;;6.55;2.88;;;19.00;99.90;;;;;;5078630;27;20657;-62
2022/07/05 06:45:48;;;;;;;6.65;2.55;;;19.20;99.90;;;;;;5079984;28;20104;-62
2022/07/05 06:48:14;;;;;;;4.03;2.55;;;19.20;99.90;;;;;;5083618;28;20032;-61
2022/07/05 06:50:41;;;;;;;5.68;2.35;;;19.20;99.90;;;;;;5078914;28;20124;-63
2022/07/05 06:53:08;;;;;;;7.03;2.60;;;19.20;99.90;;;;;;5076428;28;20073;-62
2022/07/05 06:55:34;;;;;;;6.47;2.80;;;19.30;99.90;;;;;;5087840;28;20552;-62
2022/07/05 06:58:08;;;;;;;4.65;2.45;;;19.30;99.90;;;;;;5072656;28;20042;-62
2022/07/05 07:00:33;;;;;;;;;;;19.40;99.90;;;;;;5077686;28;20028;-61
2022/07/05 07:02:59;;;;;;;5.72;1.70;;;19.60;99.90;;;;;;5079444;28;19976;-63
2022/07/05 07:05:25;;;;;;;5.15;1.75;;;19.50;99.90;;;;;;5073316;28;20029;-61
2022/07/05 07:10:36;;;;;;;3.90;1.75;;;19.50;99.90;;;;;;5075153;28;20107;-62
2022/07/05 07:13:02;;;;;;;4.80;2.10;;;19.60;99.90;;;;;;5074367;28;20023;-63
2022/07/05 07:15:29;;;;;;;3.60;1.90;;;19.60;99.90;;;;;;5082097;28;20055;-62
2022/07/05 07:17:55;;;;;;;4.32;1.63;;;19.70;99.90;;;;;;5078935;28;20078;-61
2022/07/05 07:20:20;;;;;;;2.95;1.42;;;20.00;99.90;;;;;;5076154;28;20815;-62
2022/07/05 07:22:46;;;;;;;4.95;1.60;;;20.00;99.90;;;;;;5072242;28;20103;-61
2022/07/05 07:25:12;;;;;;;3.10;1.65;;;20.10;99.90;;;;;;5074653;28;20024;-62
2022/07/05 07:27:44;;;;;;;4.95;2.30;;;20.20;99.90;;;;;;5076792;28;20035;-62
2022/07/05 07:30:14;;;;;;;4.07;2.10;;;20.20;99.90;;;;;;5081427;28;20025;-62
2022/07/05 07:32:40;;;;;;;4.25;2.10;;;20.10;99.90;;;;;;5080109;28;20593;-62
2022/07/05 07:35:07;;;;;;;4.28;1.70;;;19.90;99.90;;;;;;5077589;28;20025;-62
2022/07/05 07:37:32;;;;;;;5.13;1.45;;;20.00;99.90;;;;;;5084353;28;20029;-64
2022/07/05 07:39:58;;;;;;;2.85;1.40;;;19.90;99.90;;;;;;5079239;28;20491;-63
2022/07/05 07:42:24;;;;;;;3.80;1.40;;;20.00;99.90;;;;;;5081520;28;20027;-63
2022/07/05 07:44:50;;;;;;;5.07;1.52;;;20.10;99.90;;;;;;5083781;28;20020;-63
2022/07/05 07:47:15;;;;;;;2.35;1.20;;;20.10;99.90;;;;;;5078245;28;20040;-62
2022/07/05 07:49:41;;;;;;;4.38;1.50;;;20.30;99.90;;;;;;5076005;28;20028;-61
2022/07/05 07:52:07;;;;;;;2.92;1.30;;;20.20;99.90;;;;;;5083856;28;20666;-62
2022/07/05 07:54:32;;;;;;;6.60;1.48;;;20.30;99.90;;;;;;5072890;28;20040;-64
2022/07/05 07:56:59;;;;;;;4.25;1.50;;;20.40;99.90;;;;;;5082458;28;20410;-62
2022/07/05 07:59:25;;;;;;;3.53;1.50;;;20.30;99.90;;;;;;5082286;28;20020;-64
2022/07/05 08:01:50;;;;;;;3.08;1.60;;;20.50;99.90;;;;;;5074631;28;20465;-61
2022/07/05 08:04:16;;;;;;;8.45;1.88;;;20.70;99.90;;;;;;5082849;28;20058;-61
2022/07/05 08:06:43;;;;;;;3.40;1.70;;;20.70;99.90;;;;;;5082696;28;20031;-61
2022/07/05 08:09:09;;;;;;;2.42;1.38;;;20.30;99.90;;;;;;5082939;28;20396;-63
2022/07/05 08:11:37;;;;;;;2.63;1.60;;;20.50;99.90;;;;;;5077546;28;20040;-63
2022/07/05 08:14:02;;;;;;;5.43;1.90;;;20.60;99.90;;;;;;5069513;28;20029;-61
2022/07/05 08:16:28;;;;;;;16.63;7.75;;;20.90;99.90;;;;;;5073983;28;20089;-61
2022/07/05 08:21:38;;;;;;;2.40;1.40;;;20.90;99.90;;;;;;5079776;28;20043;-63
2022/07/05 08:24:10;;;;;;;5.60;1.30;;;20.90;99.90;;;;;;5092222;28;20032;-61
2022/07/05 08:26:36;;;;;;;4.03;2.10;;;20.80;99.90;;;;;;5080254;28;20025;-61
2022/07/05 08:29:05;;;;;;;2.10;1.88;;;20.80;99.90;;;;;;5085187;28;20023;-61
2022/07/05 08:31:32;;;;;;;3.42;2.20;;;21.00;99.90;;;;;;5080297;28;20462;-62
2022/07/05 08:33:59;;;;;;;4.65;2.35;;;20.70;99.90;;;;;;5088877;28;20027;-62
2022/07/05 08:36:24;;;;;;;5.43;2.38;;;20.60;99.90;;;;;;5079230;28;20459;-63
2022/07/05 08:38:50;;;;;;;5.85;2.30;;;20.50;99.90;;;;;;5080180;28;20019;-61
2022/07/05 08:41:19;;;;;;;3.70;2.15;;;20.90;99.90;;;;;;5084321;28;20032;-60
2022/07/05 08:43:46;;;;;;;2.80;1.77;;;20.90;99.90;;;;;;5075745;28;20041;-60
2022/07/05 08:46:13;;;;;;;7.40;2.10;;;21.20;99.90;;;;;;5087949;28;20034;-60
2022/07/05 08:48:43;;;;;;;3.95;1.73;;;21.10;99.90;;;;;;5074158;28;20618;-61
2022/07/05 08:51:11;;;;;;;3.78;1.90;;;21.20;99.90;;;;;;5086416;28;20475;-61
2022/07/05 08:53:37;;;;;;;5.25;2.13;;;21.30;99.90;;;;;;5084934;28;20032;-61
2022/07/05 08:56:04;;;;;;;6.30;2.20;;;21.30;99.90;;;;;;5080936;28;20020;-61
2022/07/05 08:58:30;;;;;;;7.18;2.00;;;21.10;99.90;;;;;;5078507;28;20496;-61
2022/07/05 09:00:57;;;;;;;5.40;2.28;;;21.20;99.90;;;;;;5083437;28;20028;-62
2022/07/05 09:03:26;;;;;;;3.63;1.65;;;21.30;99.90;;;;;;5090526;28;20032;-60
2022/07/05 09:05:55;;;;;;;4.40;2.10;;;21.30;99.90;;;;;;5081070;28;20067;-62
2022/07/05 09:08:22;;;;;;;8.48;2.17;;;21.30;99.90;;;;;;5077819;28;20465;-62
2022/07/05 09:10:49;;;;;;;2.40;1.70;;;21.20;99.90;;;;;;5081053;28;20043;-60
2022/07/05 09:13:15;;;;;;;4.75;1.95;;;21.30;99.90;;;;;;5077927;28;20031;-62
2022/07/05 09:15:41;;;;;;;4.03;1.63;;;21.40;99.90;;;;;;5084419;28;20036;-62
2022/07/05 09:18:07;;;;;;;4.43;2.30;;;21.30;99.90;;;;;;5077532;28;20388;-62
2022/07/05 09:20:32;;;;;;;6.50;2.10;;;21.40;99.90;;;;;;5090189;28;20059;-62
2022/07/05 09:22:58;;;;;;;4.97;2.10;;;21.50;99.90;;;;;;5080615;28;20032;-61
2022/07/05 09:25:32;;;;;;;6.45;2.30;;;21.80;99.90;;;;;;5075185;28;20056;-61
2022/07/05 09:28:06;;;;;;;4.70;1.63;;;21.70;99.90;;;;;;5084967;28;20043;-60
2022/07/05 09:30:33;;;;;;;2.67;1.65;;;21.80;99.90;;;;;;5078968;28;20028;-61
2022/07/05 09:33:04;;;;;;;2.08;1.48;;;21.90;99.90;;;;;;5086749;28;20387;-61
2022/07/05 09:35:33;;;;;;;3.88;2.10;;;22.20;99.90;;;;;;5080956;28;20148;-63
2022/07/05 09:37:58;;;;;;;4.15;2.65;;;22.20;99.90;;;;;;5082279;28;21154;-62
2022/07/05 09:40:24;;;;;;;5.40;2.78;;;22.10;99.90;;;;;;5079856;28;20032;-62
2022/07/05 09:42:50;;;;;;;10.10;2.00;;;21.70;99.90;;;;;;5086358;28;20578;-61
2022/07/05 09:45:23;;;;;;;7.60;1.90;;;21.90;99.90;;;;;;5082657;28;20035;-61
2022/07/05 09:47:49;;;;;;;;;;;22.10;99.90;;;;;;5082773;27;20039;-62
2022/07/05 09:50:14;;;;;;;5.32;1.70;;;22.10;99.90;;;;;;5086506;28;19912;-62
2022/07/05 09:52:41;;;;;;;3.88;1.70;;;22.10;99.90;;;;;;5080311;28;20039;-61
2022/07/05 09:55:19;;;;;;;5.35;2.05;;;22.00;99.90;;;;;;5086386;28;20012;-62
2022/07/05 09:57:50;;;;;;;3.67;2.22;;;22.00;99.90;;;;;;5081009;28;20059;-62
2022/07/05 10:00:21;;;;;;;4.50;2.50;;;21.80;99.90;;;;;;5082660;28;20020;-62
2022/07/05 10:02:51;;;;;;;4.50;2.22;;;22.10;99.90;;;;;;5081292;28;20032;-60
2022/07/05 10:05:22;;;;;;;4.82;2.20;;;22.30;99.90;;;;;;5083034;28;20040;-61
2022/07/05 10:07:53;;;;;;;5.57;1.95;;;22.50;99.90;;;;;;5078369;28;20418;-62
2022/07/05 10:10:21;;;;;;;4.68;1.90;;;22.50;99.90;;;;;;5077459;28;20039;-61
2022/07/05 10:12:48;;;;;;;7.05;1.88;;;22.40;99.90;;;;;;5078432;28;20016;-61
2022/07/05 10:15:16;;;;;;;4.45;1.70;;;22.40;99.90;;;;;;5084424;28;20040;-61
2022/07/05 10:17:45;;;;;;;4.82;1.85;;;22.40;99.90;;;;;;5071486;28;20077;-61
2022/07/05 10:20:19;;;;;;;4.20;1.60;;;22.50;99.90;;;;;;5080706;28;20674;-61
2022/07/05 10:22:46;;;;;;;3.83;1.55;;;22.50;99.90;;;;;;5070837;28;20086;-63
2022/07/05 10:25:13;;;;;;;5.35;1.70;;;22.70;99.90;;;;;;5077344;28;20111;-62
2022/07/05 10:27:39;;;;;;;4.03;1.67;;;22.70;99.90;;;;;;5072542;28;20028;-61
2022/07/05 10:30:06;;;;;;;5.47;1.67;;;22.70;99.90;;;;;;5076958;28;20035;-61
2022/07/05 10:32:34;;;;;;;3.85;1.50;;;22.50;99.90;;;;;;5076879;28;20114;-61
2022/07/05 10:35:00;;;;;;;3.13;1.38;;;22.30;99.90;;;;;;5071711;28;20027;-62
2022/07/05 10:37:28;;;;;;;2.83;1.55;;;22.30;99.90;;;;;;5071974;28;20036;-62
2022/07/05 10:39:55;;;;;;;4.43;1.80;;;22.20;99.90;;;;;;5079246;28;20483;-61
2022/07/05 10:42:23;;;;;;;6.38;1.70;;;22.20;99.90;;;;;;5088764;28;20047;-62
2022/07/05 10:44:49;;;;;;;7.07;2.00;;;22.20;99.90;;;;;;5078976;28;20040;-61
2022/07/05 10:47:14;;;;;;;2.00;1.48;;;22.20;99.90;;;;;;5081375;28;20028;-61
2022/07/05 10:49:40;;;;;;;4.60;1.55;;;22.20;99.90;;;;;;5076513;28;20494;-60
2022/07/05 10:52:24;;;;;;;5.35;1.70;;;22.40;99.90;;;;;;5081272;28;20016;-61
2022/07/05 10:55:22;;;;;;;4.72;1.45;;;22.30;99.90;;;;;;5083610;28;20027;-61
2022/07/05 10:58:15;;;;;;;4.93;1.48;;;22.50;99.90;;;;;;5072427;28;20012;-62
2022/07/05 11:00:41;;;;;;;2.63;1.58;;;22.60;99.90;;;;;;5080893;28;20048;-61
2022/07/05 11:03:27;;;;;;;2.38;1.20;;;22.60;99.90;;;;;;5087359;28;20420;-60
2022/07/05 11:05:53;;;;;;;3.60;1.27;;;22.50;99.90;;;;;;5072749;28;20037;-61
2022/07/05 11:08:19;;;;;;;3.80;1.33;;;22.60;99.90;;;;;;5070915;28;20047;-61
2022/07/05 11:11:13;;;;;;;4.07;1.40;;;22.50;99.90;;;;;;5073125;28;20431;-62
2022/07/05 11:13:47;;;;;;;3.05;1.20;;;22.50;99.90;;;;;;5067397;28;20115;-62
2022/07/05 11:16:26;;;;;;;;;;;22.50;99.90;;;;;;5077210;28;20020;-61
2022/07/05 11:19:03;;;;;;;1.65;1.10;;;22.50;99.90;;;;;;5074554;28;19909;-61
2022/07/05 11:21:29;;;;;;;2.45;1.10;;;22.70;99.90;;;;;;5068044;28;20170;-61
2022/07/05 11:24:20;;;;;;;2.55;1.20;;;22.80;99.90;;;;;;5080955;28;20123;-61
2022/07/05 11:26:49;;;;;;;5.63;1.33;;;22.40;99.90;;;;;;5074649;28;20027;-61
2022/07/05 11:29:45;;;;;;;3.72;1.60;;;22.70;99.90;;;;;;5076932;28;20471;-61
2022/07/05 11:32:22;;;;;;;5.18;1.33;;;22.90;99.90;;;;;;5077260;28;20119;-61
2022/07/05 11:34:53;;;;;;;3.10;1.50;;;22.60;99.90;;;;;;5080431;28;20043;-61
2022/07/05 11:37:34;;;;;;;3.65;1.80;;;22.60;99.90;;;;;;5078019;28;20395;-62
2022/07/05 11:40:11;;;;;;;3.88;1.55;;;22.70;99.90;;;;;;5082756;28;20020;-61
2022/07/05 11:42:45;;;;;;;4.13;1.65;;;22.90;99.90;;;;;;5088688;28;20488;-61
2022/07/05 11:45:10;;;;;;;6.50;1.50;;;22.90;99.90;;;;;;5078070;28;20530;-61
2022/07/05 11:47:36;;;;;;;2.08;1.30;;;22.90;99.90;;;;;;5078340;28;20036;-61
2022/07/05 11:50:03;;;;;;;4.30;1.48;;;23.00;99.90;;;;;;5078771;28;20020;-61
2022/07/05 11:52:30;;;;;;;3.17;1.30;;;23.30;99.90;;;;;;5086881;28;20090;-62
2022/07/05 11:54:56;;;;;;;1.55;1.30;;;23.60;99.90;;;;;;5078912;28;20032;-61
2022/07/05 11:57:23;;;;;;;3.83;1.40;;;23.70;99.90;;;;;;5079985;28;20030;-61
2022/07/05 11:59:49;;;;;;;3.38;1.40;;;23.70;99.90;;;;;;5080720;28;20051;-61
2022/07/05 12:02:15;;;;;;;5.47;1.30;;;23.50;99.90;;;;;;5084441;27;20034;-62
2022/07/05 12:04:46;;;;;;;4.20;1.63;;;23.30;99.90;;;;;;5086649;28;20035;-61
2022/07/05 12:07:12;;;;;;;3.25;1.52;;;23.40;99.90;;;;;;5083480;28;20028;-63
2022/07/05 12:12:44;;;;;;;3.05;1.27;;;23.10;99.90;;;;;;5067296;28;20051;-61
2022/07/05 12:15:19;;;;;;;5.60;1.67;;;23.10;99.90;;;;;;5081933;28;20020;-62
2022/07/05 12:17:47;;;;;;;8.07;4.20;;;23.10;99.90;;;;;;5075229;28;20024;-62
2022/07/05 12:20:15;;;;;;;9.63;1.77;;;23.20;99.90;;;;;;5079469;28;20448;-61
2022/07/05 12:22:45;;;;;;;2.80;1.50;;;23.30;99.90;;;;;;5077959;28;20024;-61
2022/07/05 12:25:18;;;;;;;4.70;1.60;;;23.40;99.90;;;;;;5081141;28;20029;-61
2022/07/05 12:27:47;;;;;;;4.60;1.70;;;23.30;99.90;;;;;;5082543;28;20511;-62
2022/07/05 12:30:13;;;;;;;2.38;1.38;;;23.40;99.90;;;;;;5083170;28;20023;-62
2022/07/05 12:33:03;;;;;;;6.13;1.33;;;23.20;99.90;;;;;;5071991;28;20111;-63
2022/07/05 12:35:36;;;;;;;4.57;1.67;;;23.40;99.90;;;;;;5074280;28;20410;-63
2022/07/05 12:38:06;;;;;;;5.13;1.80;;;23.70;99.90;;;;;;5083566;28;20024;-61
2022/07/05 12:40:32;;;;;;;3.38;1.67;;;23.30;99.90;;;;;;5074537;28;20036;-61
2022/07/05 12:43:04;;;;;;;3.97;1.50;;;23.20;99.90;;;;;;5081229;28;20032;-61
2022/07/05 12:45:31;;;;;;;4.28;1.27;;;23.40;99.90;;;;;;5075041;28;20031;-62
2022/07/05 12:48:00;;;;;;;4.43;1.58;;;23.50;99.90;;;;;;5084351;28;20548;-63
2022/07/05 12:50:31;;;;;;;3.92;1.52;;;23.60;99.90;;;;;;5077839;28;20039;-61
2022/07/05 12:58:56;;;;;;;4.38;1.70;;;23.90;99.90;;;;;;5080901;28;20403;-61
2022/07/05 13:01:36;;;;;;;5.18;1.90;;;23.80;99.90;;;;;;5088467;28;20084;-62
2022/07/05 13:04:18;;;;;;;4.68;1.80;;;23.90;99.90;;;;;;5077775;28;20265;-62